Schedule Details


Flight Number: CTN4478
Departure: Cilipi (LDDU) at 17:55
Arrival: Nice/cote Dazur (LFMN) at 19:40
Route: AMUGO UL611 UMSON UM730 TORPO M730 KEGED KEG1A ANC M730 PIDEP M872 VABMO M730 GEN M859 LAGEN Q712 ENOBA Z185 BORDI

Weather Information
LDDU 221630Z 14008KT CAVOK 20/13 Q1019 NOSIG
LFMN 221630Z VRB01KT 9999 BKN033 21/19 Q1013 NOSIG
Schedule Frequency

Route Map